createdAt,value
2023-03-14T00:01:40.115Z,4.40
2023-03-14T00:06:43.177Z,4.85
2023-03-14T00:12:04.860Z,4.68
2023-03-14T00:17:28.462Z,6.90
2023-03-14T00:22:50.435Z,6.57
2023-03-14T00:28:11.855Z,4.93
2023-03-14T00:33:35.431Z,5.05
2023-03-14T00:38:58.090Z,6.88
2023-03-14T00:44:19.138Z,8.60
2023-03-14T00:49:40.064Z,6.10
2023-03-14T00:55:02.411Z,8.80
2023-03-14T01:00:07.976Z,8.23
2023-03-14T01:05:11.546Z,6.35
2023-03-14T01:10:14.777Z,8.93
2023-03-14T01:15:17.913Z,7.63
2023-03-14T01:20:20.711Z,5.50
2023-03-14T01:25:45.297Z,5.05
2023-03-14T01:31:09.603Z,5.90
2023-03-14T01:36:31.739Z,10.25
2023-03-14T01:41:39.061Z,6.45
2023-03-14T01:46:49.536Z,7.57
2023-03-14T01:52:01.925Z,6.15
2023-03-14T01:57:21.395Z,8.40
2023-03-14T02:02:26.028Z,6.22
2023-03-14T02:07:39.453Z,10.80
2023-03-14T02:12:50.951Z,7.80
2023-03-14T02:18:09.385Z,9.68
2023-03-14T02:23:20.230Z,12.20
2023-03-14T02:28:23.700Z,10.27
2023-03-14T02:33:32.624Z,9.88
2023-03-14T02:39:04.624Z,9.13
2023-03-14T02:44:07.990Z,10.23
2023-03-14T02:49:15.171Z,8.45
2023-03-14T02:54:18.043Z,12.57
2023-03-14T02:59:20.807Z,22.20
2023-03-14T03:04:31.500Z,9.45
2023-03-14T03:09:33.918Z,45.10
2023-03-14T03:14:36.449Z,33.67
2023-03-14T03:19:40.448Z,32.80
2023-03-14T03:24:42.834Z,22.38
2023-03-14T03:29:45.866Z,23.35
2023-03-14T03:34:48.291Z,21.30
2023-03-14T03:39:53.315Z,23.27
2023-03-14T03:44:57.017Z,25.27
2023-03-14T03:50:00.435Z,17.52
2023-03-14T03:55:07.161Z,21.10
2023-03-14T04:00:13.154Z,27.80
2023-03-14T04:05:18.653Z,23.02
2023-03-14T04:10:29.035Z,32.33
2023-03-14T04:15:43.774Z,28.73
2023-03-14T04:21:00.141Z,37.10
2023-03-14T04:26:12.668Z,18.45
2023-03-14T04:31:21.384Z,18.15
2023-03-14T04:36:25.710Z,19.60
2023-03-14T04:41:28.730Z,23.42
2023-03-14T04:46:31.534Z,23.58
2023-03-14T04:51:35.429Z,36.95
2023-03-14T04:56:39.040Z,25.90
2023-03-14T05:01:42.419Z,22.40
2023-03-14T05:07:04.002Z,15.77
2023-03-14T05:12:22.994Z,11.60
2023-03-14T05:17:50.465Z,22.30
2023-03-14T05:23:21.366Z,18.95
2023-03-14T05:28:34.289Z,21.05
2023-03-14T05:34:13.197Z,23.90
2023-03-14T05:39:27.074Z,21.10
2023-03-14T05:45:12.027Z,27.90
2023-03-14T05:50:42.002Z,23.23
2023-03-14T05:56:00.221Z,13.82
2023-03-14T06:01:27.447Z,11.48
2023-03-14T06:06:44.131Z,5.68
2023-03-14T06:11:48.207Z,4.95
2023-03-14T06:16:52.010Z,4.53
2023-03-14T06:21:57.111Z,4.15
2023-03-14T06:27:04.141Z,2.20
2023-03-14T06:32:07.961Z,2.80
2023-03-14T06:37:13.427Z,7.65
2023-03-14T06:42:17.759Z,6.57
2023-03-14T06:47:23.752Z,10.25
2023-03-14T06:57:29.865Z,7.25
2023-03-14T07:02:42.716Z,9.63
2023-03-14T07:08:12.606Z,9.65
2023-03-14T07:13:16.400Z,10.27
2023-03-14T07:18:31.533Z,14.57
2023-03-14T07:23:35.014Z,9.75
2023-03-14T07:28:38.704Z,16.17
2023-03-14T07:33:46.388Z,15.98
2023-03-14T07:38:50.966Z,15.88
2023-03-14T07:44:04.765Z,16.67
2023-03-14T07:49:07.822Z,8.32
2023-03-14T07:54:13.584Z,14.10
2023-03-14T07:59:16.196Z,8.90
2023-03-14T08:04:19.234Z,8.48
2023-03-14T08:09:21.833Z,4.55
2023-03-14T08:14:28.123Z,4.68
2023-03-14T08:19:31.173Z,14.40
2023-03-14T08:24:35.329Z,8.68
2023-03-14T08:29:44.368Z,5.82
2023-03-14T08:34:48.836Z,4.88
2023-03-14T08:39:54.804Z,8.77
2023-03-14T08:44:59.676Z,7.95
2023-03-14T08:50:15.501Z,9.80
2023-03-14T08:55:20.209Z,6.65
2023-03-14T09:00:24.043Z,5.65
2023-03-14T09:05:30.089Z,7.05
2023-03-14T09:10:32.962Z,7.07
2023-03-14T09:15:39.192Z,8.35
2023-03-14T09:20:42.736Z,4.18
2023-03-14T09:25:46.781Z,3.03
2023-03-14T09:30:51.208Z,7.32
2023-03-14T09:35:55.954Z,17.50
2023-03-14T09:41:01.574Z,5.63
2023-03-14T09:46:08.094Z,4.30
2023-03-14T09:51:23.556Z,3.97
2023-03-14T09:56:34.956Z,5.53
2023-03-14T10:01:38.581Z,14.15
2023-03-14T10:06:41.673Z,4.57
2023-03-14T10:11:46.868Z,3.22
2023-03-14T10:16:51.117Z,4.10
2023-03-14T10:21:58.122Z,2.28
2023-03-14T10:27:07.980Z,10.43
2023-03-14T10:32:22.525Z,5.55
2023-03-14T10:37:29.616Z,6.72
2023-03-14T10:42:36.476Z,3.03
2023-03-14T10:47:52.242Z,8.52
2023-03-14T10:53:02.583Z,24.92
2023-03-14T10:58:19.124Z,4.53
2023-03-14T11:03:33.972Z,6.45
2023-03-14T11:08:59.368Z,9.10
2023-03-14T11:14:22.774Z,6.00
2023-03-14T11:19:29.503Z,4.20
2023-03-14T11:24:57.918Z,3.75
2023-03-14T11:30:27.886Z,17.42
2023-03-14T11:35:46.257Z,12.68
2023-03-14T11:40:51.349Z,1.38
2023-03-14T11:51:03.338Z,4.60
2023-03-14T11:56:23.816Z,5.63
2023-03-14T12:01:52.388Z,6.40
2023-03-14T12:07:00.032Z,11.23
2023-03-14T12:12:05.464Z,3.47
2023-03-14T12:17:40.054Z,3.38
2023-03-14T12:22:49.778Z,11.80
2023-03-14T12:27:57.190Z,16.05
2023-03-14T12:33:19.778Z,8.80
2023-03-14T12:38:54.329Z,9.38
2023-03-14T12:44:00.299Z,7.25
2023-03-14T12:49:06.549Z,2.60
2023-03-14T12:59:34.989Z,9.45
2023-03-14T13:05:06.390Z,15.10
2023-03-14T13:15:24.780Z,4.43
2023-03-14T13:20:48.989Z,3.78
2023-03-14T13:25:54.389Z,5.97
2023-03-14T13:31:01.428Z,4.75
2023-03-14T13:36:07.464Z,3.55
2023-03-14T13:41:13.315Z,6.45
2023-03-14T13:46:21.180Z,21.23
2023-03-14T13:51:27.710Z,5.25
2023-03-14T13:56:33.513Z,3.22
2023-03-14T14:07:07.828Z,10.82
2023-03-14T14:12:29.267Z,7.75
2023-03-14T14:17:36.318Z,7.78
2023-03-14T14:22:39.649Z,7.88
2023-03-14T14:27:49.024Z,7.72
2023-03-14T14:32:52.797Z,10.07
2023-03-14T14:37:55.948Z,7.72
2023-03-14T14:43:07.075Z,8.07
2023-03-14T14:48:14.822Z,12.13
2023-03-14T14:53:38.512Z,17.73
2023-03-14T14:58:48.233Z,5.57
2023-03-14T15:03:55.121Z,8.40
2023-03-14T15:08:58.743Z,12.52
2023-03-14T15:14:01.632Z,5.80
2023-03-14T15:19:23.656Z,11.80
2023-03-14T15:24:27.483Z,12.65
2023-03-14T15:29:30.374Z,6.72
2023-03-14T15:34:32.880Z,8.77
2023-03-14T15:39:36.099Z,9.80
2023-03-14T15:44:40.229Z,10.25
2023-03-14T15:49:42.584Z,22.33
2023-03-14T15:54:44.976Z,6.10
2023-03-14T15:59:47.519Z,9.27
2023-03-14T16:04:49.915Z,10.63
2023-03-14T16:09:52.969Z,6.82
2023-03-14T16:14:55.441Z,5.90
2023-03-14T16:19:57.874Z,5.60
2023-03-14T16:25:00.249Z,5.57
2023-03-14T16:30:03.280Z,7.47
2023-03-14T16:35:07.403Z,14.32
2023-03-14T16:40:12.989Z,7.10
2023-03-14T16:45:18.069Z,4.63
2023-03-14T16:50:21.884Z,9.57
2023-03-14T16:55:24.999Z,9.13
2023-03-14T17:00:27.579Z,6.47
2023-03-14T17:05:31.473Z,8.13
2023-03-14T17:10:36.017Z,5.60
2023-03-14T17:15:39.642Z,10.38
2023-03-14T17:20:42.465Z,6.30
2023-03-14T17:25:47.641Z,7.93
2023-03-14T17:30:50.159Z,6.18
2023-03-14T17:35:54.486Z,7.53
2023-03-14T17:40:57.000Z,6.10
2023-03-14T17:46:01.973Z,13.85
2023-03-14T17:51:05.527Z,4.55
2023-03-14T17:56:09.106Z,5.68
2023-03-14T18:01:13.859Z,3.03
2023-03-14T18:06:18.256Z,7.57
2023-03-14T18:11:20.688Z,4.97
2023-03-14T18:16:23.674Z,6.78
2023-03-14T18:21:26.958Z,2.80
2023-03-14T18:26:29.519Z,4.15
2023-03-14T18:31:35.170Z,9.80
2023-03-14T18:36:38.833Z,4.78
2023-03-14T18:41:41.148Z,5.63
2023-03-14T18:46:43.921Z,4.40
2023-03-14T18:51:46.383Z,5.63
2023-03-14T18:56:48.617Z,4.18
2023-03-14T19:01:51.114Z,3.88
2023-03-14T19:06:54.290Z,7.13
2023-03-14T19:11:56.786Z,3.92
2023-03-14T19:16:59.160Z,4.72
2023-03-14T19:22:01.685Z,3.60
2023-03-14T19:27:04.475Z,3.80
2023-03-14T19:32:07.613Z,4.30
2023-03-14T19:37:10.604Z,2.95
2023-03-14T19:42:13.409Z,5.78
2023-03-14T19:47:15.724Z,5.93
2023-03-14T19:52:19.012Z,5.53
2023-03-14T19:57:21.542Z,3.78
2023-03-14T20:02:24.338Z,3.53
2023-03-14T20:07:28.708Z,2.17
2023-03-14T20:12:32.303Z,3.63
2023-03-14T20:17:38.742Z,8.60
2023-03-14T20:22:41.980Z,2.35
2023-03-14T20:27:47.306Z,3.38
2023-03-14T20:32:51.230Z,3.47
2023-03-14T20:37:56.862Z,3.80
2023-03-14T20:42:59.731Z,5.07
2023-03-14T20:48:02.877Z,4.90
2023-03-14T20:53:05.743Z,4.38
2023-03-14T20:58:08.204Z,4.43
2023-03-14T21:03:10.885Z,4.85
2023-03-14T21:08:19.909Z,3.67
2023-03-14T21:13:24.494Z,3.63
2023-03-14T21:18:27.421Z,5.18
2023-03-14T21:23:30.333Z,5.50
2023-03-14T21:28:32.804Z,5.82
2023-03-14T21:33:35.949Z,2.67
2023-03-14T21:38:38.296Z,3.58
2023-03-14T21:43:45.987Z,4.45
2023-03-14T21:48:49.394Z,3.83
2023-03-14T21:53:51.692Z,2.83
2023-03-14T21:59:00.782Z,2.38
2023-03-14T22:04:03.875Z,3.53
2023-03-14T22:09:06.283Z,2.88
2023-03-14T22:14:09.651Z,2.40
2023-03-14T22:19:12.550Z,1.85
2023-03-14T22:24:15.493Z,2.08
2023-03-14T22:29:18.911Z,4.05
2023-03-14T22:34:21.552Z,1.85
2023-03-14T22:39:25.207Z,2.58
2023-03-14T22:44:33.359Z,2.40
2023-03-14T22:49:36.268Z,2.33
2023-03-14T22:54:39.328Z,2.45
2023-03-14T22:59:42.092Z,2.28
2023-03-14T23:04:45.906Z,2.92
2023-03-14T23:09:48.718Z,1.48
2023-03-14T23:14:51.558Z,1.75
2023-03-14T23:19:54.465Z,1.35
2023-03-14T23:24:57.315Z,1.33
2023-03-14T23:30:00.537Z,4.22
2023-03-14T23:35:03.357Z,3.05
2023-03-14T23:40:07.120Z,3.15
2023-03-14T23:45:10.543Z,2.35
2023-03-14T23:50:13.088Z,3.10
2023-03-14T23:55:15.762Z,1.67
